SAS462 EKCH-ENGM
Flight info
| Callsign | SAS462 |
|---|---|
| Flight time | 0h 55m |
| Altitude | 38000 |
| Route | VEDAR DCT SABAK DCT LUNIP |
| Aircraft | A320/M-SDE3FGHIJ1RWXYZ/ALB1 |
Departure
| Time | 2026-05-07 12:33 |
|---|---|
| Airport | Copenhagen Kastrup Airport (EKCH) |
Arrival
| Time | 2026-05-07 13:28 |
|---|---|
| Airport | Oslo-Gardermoen International Airport (ENGM) |
| Time | Latitude | Longitude | Altitude | Speed | Heading |
|---|---|---|---|---|---|
| 2026-05-07 11:57 | 55.62810 | 12.64220 | 17 ft | 0 kts | 123° |
| 2026-05-07 12:20 | 55.62816 | 12.64205 | 17 ft | 4 kts | 123° |
| 2026-05-07 12:21 | 55.62828 | 12.64173 | 17 ft | 4 kts | 120° |
| 2026-05-07 12:21 | 55.62837 | 12.64130 | 17 ft | 4 kts | 92° |
| 2026-05-07 12:21 | 55.62834 | 12.64090 | 17 ft | 3 kts | 66° |
| 2026-05-07 12:21 | 55.62825 | 12.64056 | 17 ft | 3 kts | 67° |
| 2026-05-07 12:22 | 55.62819 | 12.64011 | 17 ft | 4 kts | 94° |
| 2026-05-07 12:22 | 55.62823 | 12.63973 | 17 ft | 3 kts | 104° |
| 2026-05-07 12:22 | 55.62829 | 12.63927 | 17 ft | 4 kts | 104° |
| 2026-05-07 12:22 | 55.62835 | 12.63884 | 17 ft | 2 kts | 104° |
| 2026-05-07 12:23 | 55.62835 | 12.63882 | 17 ft | 0 kts | 104° |
| 2026-05-07 12:25 | 55.62834 | 12.63887 | 17 ft | 2 kts | 104° |
| 2026-05-07 12:25 | 55.62827 | 12.63920 | 17 ft | 4 kts | 114° |
| 2026-05-07 12:25 | 55.62799 | 12.63956 | 18 ft | 6 kts | 165° |
| 2026-05-07 12:26 | 55.62750 | 12.63930 | 18 ft | 9 kts | 212° |
| 2026-05-07 12:26 | 55.62693 | 12.63865 | 17 ft | 9 kts | 213° |
| 2026-05-07 12:26 | 55.62636 | 12.63892 | 17 ft | 11 kts | 124° |
| 2026-05-07 12:26 | 55.62590 | 12.64018 | 17 ft | 14 kts | 123° |
| 2026-05-07 12:27 | 55.62532 | 12.64173 | 17 ft | 17 kts | 123° |
| 2026-05-07 12:27 | 55.62461 | 12.64356 | 17 ft | 20 kts | 128° |
| 2026-05-07 12:27 | 55.62376 | 12.64561 | 17 ft | 22 kts | 122° |
| 2026-05-07 12:27 | 55.62286 | 12.64805 | 18 ft | 25 kts | 123° |
| 2026-05-07 12:28 | 55.62207 | 12.65017 | 19 ft | 12 kts | 124° |
| 2026-05-07 12:28 | 55.62166 | 12.65099 | 18 ft | 10 kts | 154° |
| 2026-05-07 12:28 | 55.62100 | 12.65056 | 18 ft | 12 kts | 213° |
| 2026-05-07 12:28 | 55.62024 | 12.64969 | 18 ft | 14 kts | 213° |
| 2026-05-07 12:29 | 55.61927 | 12.64858 | 17 ft | 18 kts | 213° |
| 2026-05-07 12:29 | 55.61813 | 12.64728 | 17 ft | 21 kts | 213° |
| 2026-05-07 12:29 | 55.61682 | 12.64576 | 17 ft | 24 kts | 213° |
| 2026-05-07 12:29 | 55.61535 | 12.64405 | 19 ft | 27 kts | 213° |
| 2026-05-07 12:30 | 55.61374 | 12.64216 | 17 ft | 29 kts | 213° |
| 2026-05-07 12:30 | 55.61197 | 12.64017 | 17 ft | 31 kts | 213° |
| 2026-05-07 12:30 | 55.61013 | 12.63808 | 18 ft | 28 kts | 213° |
| 2026-05-07 12:30 | 55.60866 | 12.63637 | 17 ft | 26 kts | 213° |
| 2026-05-07 12:31 | 55.60706 | 12.63452 | 18 ft | 28 kts | 213° |
| 2026-05-07 12:31 | 55.60576 | 12.63276 | 17 ft | 14 kts | 221° |
| 2026-05-07 12:31 | 55.60518 | 12.63209 | 17 ft | 10 kts | 193° |
| 2026-05-07 12:31 | 55.60456 | 12.63280 | 17 ft | 12 kts | 130° |
| 2026-05-07 12:32 | 55.60401 | 12.63394 | 18 ft | 5 kts | 127° |
| 2026-05-07 12:32 | 55.60412 | 12.63463 | 18 ft | 9 kts | 41° |
| 2026-05-07 12:32 | 55.60495 | 12.63590 | 18 ft | 35 kts | 41° |
| 2026-05-07 12:32 | 55.60879 | 12.64182 | 18 ft | 107 kts | 41° |
| 2026-05-07 12:33 | 55.62417 | 12.66568 | 625 ft | 158 kts | 41° |
| 2026-05-07 12:33 | 55.63239 | 12.67836 | 1309 ft | 162 kts | 40° |
| 2026-05-07 12:33 | 55.64136 | 12.69218 | 1728 ft | 179 kts | 40° |
| 2026-05-07 12:34 | 55.65114 | 12.70677 | 2225 ft | 191 kts | 34° |
| 2026-05-07 12:34 | 55.66423 | 12.71489 | 2577 ft | 214 kts | 358° |
| 2026-05-07 12:34 | 55.67938 | 12.70784 | 3021 ft | 238 kts | 340° |
| 2026-05-07 12:34 | 55.69566 | 12.69848 | 3715 ft | 251 kts | 348° |
| 2026-05-07 12:35 | 55.71316 | 12.69417 | 4605 ft | 257 kts | 355° |
| 2026-05-07 12:35 | 55.73111 | 12.69238 | 5527 ft | 261 kts | 358° |
| 2026-05-07 12:35 | 55.74911 | 12.69144 | 6454 ft | 263 kts | 359° |
| 2026-05-07 12:35 | 55.76749 | 12.69053 | 7371 ft | 266 kts | 359° |
| 2026-05-07 12:36 | 55.78613 | 12.68930 | 8227 ft | 270 kts | 357° |
| 2026-05-07 12:36 | 55.80473 | 12.68307 | 9057 ft | 276 kts | 340° |
| 2026-05-07 12:36 | 55.82154 | 12.66620 | 9850 ft | 283 kts | 321° |
| 2026-05-07 12:36 | 55.83456 | 12.63965 | 10540 ft | 293 kts | 302° |
| 2026-05-07 12:37 | 55.84328 | 12.60529 | 10806 ft | 318 kts | 291° |
| 2026-05-07 12:37 | 55.85152 | 12.56770 | 11295 ft | 331 kts | 291° |
| 2026-05-07 12:37 | 55.85983 | 12.52981 | 12019 ft | 334 kts | 291° |
| 2026-05-07 12:37 | 55.86828 | 12.49111 | 12759 ft | 336 kts | 291° |
| 2026-05-07 12:38 | 55.87684 | 12.45206 | 13446 ft | 341 kts | 291° |
| 2026-05-07 12:38 | 55.88570 | 12.41272 | 14177 ft | 344 kts | 294° |
| 2026-05-07 12:38 | 55.89810 | 12.37616 | 14884 ft | 348 kts | 307° |
| 2026-05-07 12:38 | 55.91525 | 12.34552 | 15550 ft | 352 kts | 321° |
| 2026-05-07 12:39 | 55.93631 | 12.32290 | 16181 ft | 357 kts | 335° |
| 2026-05-07 12:39 | 55.96015 | 12.30934 | 16822 ft | 362 kts | 344° |
| 2026-05-07 12:39 | 55.98434 | 12.29828 | 17443 ft | 365 kts | 343° |
| 2026-05-07 12:39 | 56.00906 | 12.28683 | 18063 ft | 368 kts | 343° |
| 2026-05-07 12:40 | 56.03398 | 12.27515 | 18683 ft | 372 kts | 343° |
| 2026-05-07 12:40 | 56.05909 | 12.26339 | 19301 ft | 375 kts | 343° |
| 2026-05-07 12:40 | 56.08446 | 12.25146 | 19918 ft | 379 kts | 343° |
| 2026-05-07 12:40 | 56.11017 | 12.24008 | 20517 ft | 383 kts | 347° |
| 2026-05-07 12:41 | 56.13666 | 12.23260 | 21093 ft | 388 kts | 349° |
| 2026-05-07 12:41 | 56.16343 | 12.22531 | 21646 ft | 391 kts | 349° |
| 2026-05-07 12:41 | 56.19005 | 12.21808 | 22167 ft | 394 kts | 349° |
| 2026-05-07 12:41 | 56.21725 | 12.21069 | 22694 ft | 397 kts | 349° |
| 2026-05-07 12:42 | 56.24466 | 12.20315 | 23204 ft | 400 kts | 349° |
| 2026-05-07 12:42 | 56.27223 | 12.19554 | 23693 ft | 403 kts | 349° |
| 2026-05-07 12:42 | 56.30005 | 12.18785 | 24173 ft | 406 kts | 349° |
| 2026-05-07 12:42 | 56.32717 | 12.18041 | 24623 ft | 409 kts | 349° |
| 2026-05-07 12:43 | 56.35537 | 12.17268 | 25086 ft | 412 kts | 349° |
| 2026-05-07 12:43 | 56.38365 | 12.16484 | 25567 ft | 414 kts | 349° |
| 2026-05-07 12:43 | 56.41044 | 12.15742 | 25978 ft | 416 kts | 349° |
| 2026-05-07 12:43 | 56.43848 | 12.14964 | 26402 ft | 418 kts | 349° |
| 2026-05-07 12:44 | 56.46722 | 12.14162 | 26827 ft | 419 kts | 349° |
| 2026-05-07 12:44 | 56.49602 | 12.13356 | 27235 ft | 421 kts | 349° |
| 2026-05-07 12:44 | 56.52500 | 12.12544 | 27645 ft | 423 kts | 349° |
| 2026-05-07 12:44 | 56.55415 | 12.11723 | 28051 ft | 425 kts | 349° |
| 2026-05-07 12:45 | 56.58348 | 12.10902 | 28449 ft | 427 kts | 349° |
| 2026-05-07 12:45 | 56.61291 | 12.10082 | 28835 ft | 428 kts | 349° |
| 2026-05-07 12:45 | 56.64201 | 12.09267 | 29191 ft | 430 kts | 349° |
| 2026-05-07 12:45 | 56.67163 | 12.08434 | 29543 ft | 432 kts | 349° |
| 2026-05-07 12:46 | 56.70138 | 12.07597 | 29912 ft | 433 kts | 349° |
| 2026-05-07 12:46 | 56.73126 | 12.06758 | 30265 ft | 435 kts | 349° |
| 2026-05-07 12:46 | 56.76120 | 12.05917 | 30600 ft | 436 kts | 349° |
| 2026-05-07 12:46 | 56.79127 | 12.05066 | 30933 ft | 438 kts | 349° |
| 2026-05-07 12:47 | 56.82146 | 12.04206 | 31270 ft | 439 kts | 348° |
| 2026-05-07 12:47 | 56.85117 | 12.03359 | 31707 ft | 437 kts | 349° |
| 2026-05-07 12:47 | 56.88119 | 12.02507 | 32139 ft | 436 kts | 348° |
| 2026-05-07 12:47 | 56.91112 | 12.01661 | 32565 ft | 435 kts | 348° |
| 2026-05-07 12:48 | 56.94095 | 12.00813 | 32975 ft | 433 kts | 348° |
| 2026-05-07 12:48 | 56.97069 | 11.99958 | 33387 ft | 432 kts | 348° |
| 2026-05-07 12:48 | 57.00037 | 11.99105 | 33803 ft | 430 kts | 348° |
| 2026-05-07 12:48 | 57.02987 | 11.98254 | 34259 ft | 428 kts | 348° |
| 2026-05-07 12:49 | 57.05928 | 11.97407 | 34641 ft | 428 kts | 348° |
| 2026-05-07 12:49 | 57.08831 | 11.96571 | 34958 ft | 429 kts | 348° |
| 2026-05-07 12:49 | 57.11781 | 11.95717 | 35268 ft | 430 kts | 347° |
| 2026-05-07 12:49 | 57.14739 | 11.94861 | 35553 ft | 431 kts | 347° |
| 2026-05-07 12:50 | 57.17702 | 11.94008 | 35821 ft | 432 kts | 347° |
| 2026-05-07 12:50 | 57.20678 | 11.93146 | 36099 ft | 433 kts | 347° |
| 2026-05-07 12:50 | 57.23657 | 11.92283 | 36364 ft | 434 kts | 347° |
| 2026-05-07 12:50 | 57.26648 | 11.91415 | 36617 ft | 435 kts | 347° |
| 2026-05-07 12:51 | 57.29603 | 11.90557 | 36899 ft | 436 kts | 347° |
| 2026-05-07 12:51 | 57.32591 | 11.89692 | 37223 ft | 434 kts | 347° |
| 2026-05-07 12:51 | 57.35571 | 11.88828 | 37548 ft | 433 kts | 347° |
| 2026-05-07 12:51 | 57.38544 | 11.87960 | 37799 ft | 433 kts | 347° |
| 2026-05-07 12:52 | 57.41528 | 11.87083 | 38009 ft | 434 kts | 347° |
| 2026-05-07 12:52 | 57.44519 | 11.86199 | 38090 ft | 437 kts | 347° |
| 2026-05-07 12:52 | 57.50542 | 11.84414 | 38109 ft | 439 kts | 347° |
| 2026-05-07 12:53 | 57.56536 | 11.82660 | 38110 ft | 439 kts | 347° |
| 2026-05-07 12:53 | 57.62573 | 11.80882 | 38109 ft | 439 kts | 346° |
| 2026-05-07 12:54 | 57.68605 | 11.79087 | 38109 ft | 439 kts | 346° |
| 2026-05-07 12:54 | 57.74642 | 11.77283 | 38113 ft | 440 kts | 346° |
| 2026-05-07 12:55 | 57.80640 | 11.75479 | 38119 ft | 439 kts | 346° |
| 2026-05-07 12:55 | 57.86679 | 11.73679 | 38118 ft | 439 kts | 346° |
| 2026-05-07 12:56 | 57.92717 | 11.71870 | 38121 ft | 439 kts | 346° |
| 2026-05-07 12:56 | 57.98707 | 11.70053 | 38119 ft | 439 kts | 346° |
| 2026-05-07 12:57 | 58.04735 | 11.68212 | 38116 ft | 439 kts | 346° |
| 2026-05-07 12:57 | 58.10766 | 11.66377 | 38112 ft | 439 kts | 346° |
| 2026-05-07 12:58 | 58.16796 | 11.64539 | 38113 ft | 439 kts | 346° |
| 2026-05-07 12:58 | 58.22774 | 11.62686 | 38112 ft | 438 kts | 346° |
| 2026-05-07 12:59 | 58.28797 | 11.60770 | 38108 ft | 439 kts | 346° |
| 2026-05-07 12:59 | 58.34826 | 11.58835 | 38107 ft | 439 kts | 346° |
| 2026-05-07 13:00 | 58.40847 | 11.56897 | 38108 ft | 439 kts | 346° |
| 2026-05-07 13:00 | 58.46827 | 11.54982 | 38108 ft | 439 kts | 346° |
| 2026-05-07 13:01 | 58.52850 | 11.53059 | 38111 ft | 439 kts | 346° |
| 2026-05-07 13:01 | 58.58865 | 11.51121 | 38106 ft | 438 kts | 346° |
| 2026-05-07 13:02 | 58.64888 | 11.49158 | 37392 ft | 440 kts | 345° |
| 2026-05-07 13:02 | 58.67829 | 11.48200 | 36824 ft | 428 kts | 345° |
| 2026-05-07 13:02 | 58.70734 | 11.47260 | 36143 ft | 420 kts | 345° |
| 2026-05-07 13:03 | 58.73589 | 11.46333 | 35445 ft | 412 kts | 345° |
| 2026-05-07 13:03 | 58.76399 | 11.45423 | 34695 ft | 406 kts | 345° |
| 2026-05-07 13:03 | 58.79164 | 11.44525 | 33979 ft | 399 kts | 344° |
| 2026-05-07 13:03 | 58.81871 | 11.43644 | 33422 ft | 388 kts | 344° |
| 2026-05-07 13:04 | 58.84497 | 11.42789 | 32986 ft | 380 kts | 344° |
| 2026-05-07 13:04 | 58.87072 | 11.41933 | 32537 ft | 380 kts | 344° |
| 2026-05-07 13:04 | 58.89668 | 11.41058 | 32074 ft | 378 kts | 344° |
| 2026-05-07 13:04 | 58.92252 | 11.40196 | 31611 ft | 375 kts | 344° |
| 2026-05-07 13:05 | 58.94811 | 11.39352 | 31145 ft | 372 kts | 344° |
| 2026-05-07 13:05 | 58.97354 | 11.38524 | 30691 ft | 371 kts | 344° |
| 2026-05-07 13:05 | 58.99894 | 11.37690 | 30222 ft | 370 kts | 344° |
| 2026-05-07 13:05 | 59.02425 | 11.36852 | 29761 ft | 368 kts | 344° |
| 2026-05-07 13:06 | 59.04946 | 11.36013 | 29305 ft | 367 kts | 344° |
| 2026-05-07 13:06 | 59.07424 | 11.35182 | 28852 ft | 366 kts | 344° |
| 2026-05-07 13:06 | 59.09931 | 11.34340 | 28405 ft | 365 kts | 344° |
| 2026-05-07 13:06 | 59.12428 | 11.33499 | 27964 ft | 364 kts | 343° |
| 2026-05-07 13:07 | 59.14916 | 11.32662 | 27664 ft | 360 kts | 344° |
| 2026-05-07 13:07 | 59.17402 | 11.32184 | 27474 ft | 359 kts | 354° |
| 2026-05-07 13:07 | 59.19912 | 11.32650 | 27236 ft | 370 kts | 4° |
| 2026-05-07 13:07 | 59.22425 | 11.34035 | 26738 ft | 377 kts | 11° |
| 2026-05-07 13:08 | 59.24870 | 11.35591 | 26230 ft | 373 kts | 11° |
| 2026-05-07 13:08 | 59.27316 | 11.37154 | 25681 ft | 367 kts | 11° |
| 2026-05-07 13:08 | 59.29739 | 11.38693 | 25186 ft | 365 kts | 11° |
| 2026-05-07 13:08 | 59.32154 | 11.40220 | 24689 ft | 364 kts | 11° |
| 2026-05-07 13:09 | 59.34565 | 11.41739 | 24195 ft | 365 kts | 11° |
| 2026-05-07 13:09 | 59.36987 | 11.43262 | 23693 ft | 366 kts | 11° |
| 2026-05-07 13:09 | 59.39409 | 11.44790 | 23308 ft | 363 kts | 11° |
| 2026-05-07 13:09 | 59.41818 | 11.46315 | 22827 ft | 363 kts | 11° |
| 2026-05-07 13:10 | 59.44204 | 11.47831 | 22478 ft | 359 kts | 11° |
| 2026-05-07 13:10 | 59.46576 | 11.49331 | 22069 ft | 357 kts | 11° |
| 2026-05-07 13:10 | 59.48904 | 11.50796 | 21674 ft | 355 kts | 11° |
| 2026-05-07 13:10 | 59.51237 | 11.52266 | 21115 ft | 350 kts | 11° |
| 2026-05-07 13:11 | 59.53544 | 11.53727 | 20400 ft | 346 kts | 11° |
| 2026-05-07 13:11 | 59.55819 | 11.55174 | 19801 ft | 340 kts | 11° |
| 2026-05-07 13:11 | 59.58059 | 11.56597 | 19343 ft | 337 kts | 11° |
| 2026-05-07 13:11 | 59.60294 | 11.58015 | 18886 ft | 338 kts | 12° |
| 2026-05-07 13:12 | 59.62532 | 11.59434 | 18445 ft | 337 kts | 12° |
| 2026-05-07 13:12 | 59.64751 | 11.60847 | 18076 ft | 334 kts | 12° |
| 2026-05-07 13:12 | 59.66964 | 11.62261 | 17755 ft | 331 kts | 12° |
| 2026-05-07 13:12 | 59.69136 | 11.63657 | 17459 ft | 326 kts | 12° |
| 2026-05-07 13:13 | 59.71286 | 11.65038 | 17124 ft | 324 kts | 12° |
| 2026-05-07 13:13 | 59.73421 | 11.66411 | 16779 ft | 321 kts | 12° |
| 2026-05-07 13:13 | 59.75542 | 11.67236 | 16445 ft | 309 kts | 355° |
| 2026-05-07 13:13 | 59.77634 | 11.66747 | 16096 ft | 300 kts | 343° |
| 2026-05-07 13:14 | 59.79678 | 11.65936 | 15725 ft | 299 kts | 343° |
| 2026-05-07 13:14 | 59.81715 | 11.65117 | 15378 ft | 298 kts | 343° |
| 2026-05-07 13:14 | 59.83735 | 11.64298 | 15035 ft | 296 kts | 343° |
| 2026-05-07 13:14 | 59.85754 | 11.63477 | 14697 ft | 295 kts | 343° |
| 2026-05-07 13:15 | 59.87757 | 11.62666 | 14373 ft | 293 kts | 343° |
| 2026-05-07 13:15 | 59.89749 | 11.61861 | 14039 ft | 291 kts | 343° |
| 2026-05-07 13:15 | 59.91727 | 11.61060 | 13702 ft | 289 kts | 343° |
| 2026-05-07 13:15 | 59.93697 | 11.60261 | 13370 ft | 288 kts | 343° |
| 2026-05-07 13:16 | 59.95627 | 11.59479 | 13019 ft | 286 kts | 343° |
| 2026-05-07 13:16 | 59.97577 | 11.58686 | 12700 ft | 285 kts | 344° |
| 2026-05-07 13:16 | 59.99515 | 11.57893 | 12363 ft | 284 kts | 344° |
| 2026-05-07 13:16 | 60.01444 | 11.57103 | 12039 ft | 282 kts | 344° |
| 2026-05-07 13:17 | 60.03363 | 11.56317 | 11723 ft | 281 kts | 344° |
| 2026-05-07 13:17 | 60.05271 | 11.55534 | 11396 ft | 279 kts | 345° |
| 2026-05-07 13:17 | 60.07173 | 11.54753 | 11030 ft | 279 kts | 345° |
| 2026-05-07 13:17 | 60.09079 | 11.53968 | 10661 ft | 279 kts | 345° |
| 2026-05-07 13:18 | 60.10955 | 11.53199 | 10306 ft | 279 kts | 346° |
| 2026-05-07 13:18 | 60.12858 | 11.52420 | 9959 ft | 279 kts | 346° |
| 2026-05-07 13:18 | 60.14756 | 11.51640 | 9606 ft | 279 kts | 347° |
| 2026-05-07 13:18 | 60.16656 | 11.50856 | 9239 ft | 279 kts | 347° |
| 2026-05-07 13:19 | 60.18556 | 11.50069 | 8899 ft | 279 kts | 347° |
| 2026-05-07 13:19 | 60.20450 | 11.49284 | 8650 ft | 275 kts | 347° |
| 2026-05-07 13:19 | 60.22283 | 11.48525 | 8527 ft | 261 kts | 347° |
| 2026-05-07 13:19 | 60.24006 | 11.47809 | 8387 ft | 248 kts | 347° |
| 2026-05-07 13:20 | 60.25681 | 11.47116 | 8162 ft | 244 kts | 347° |
| 2026-05-07 13:20 | 60.27340 | 11.46430 | 7889 ft | 243 kts | 347° |
| 2026-05-07 13:20 | 60.28986 | 11.45748 | 7610 ft | 241 kts | 347° |
| 2026-05-07 13:20 | 60.30605 | 11.45080 | 7353 ft | 239 kts | 347° |
| 2026-05-07 13:21 | 60.32234 | 11.44408 | 7042 ft | 239 kts | 347° |
| 2026-05-07 13:21 | 60.33862 | 11.43730 | 6758 ft | 238 kts | 347° |
| 2026-05-07 13:21 | 60.35482 | 11.43056 | 6478 ft | 237 kts | 347° |
| 2026-05-07 13:21 | 60.37094 | 11.42386 | 6198 ft | 236 kts | 347° |
| 2026-05-07 13:22 | 60.38696 | 11.41718 | 5900 ft | 235 kts | 347° |
| 2026-05-07 13:22 | 60.40221 | 11.40636 | 5624 ft | 232 kts | 324° |
| 2026-05-07 13:22 | 60.41248 | 11.38240 | 5193 ft | 227 kts | 292° |
| 2026-05-07 13:22 | 60.41473 | 11.35146 | 5013 ft | 220 kts | 261° |
| 2026-05-07 13:23 | 60.41132 | 11.32258 | 5012 ft | 212 kts | 256° |
| 2026-05-07 13:23 | 60.40769 | 11.29369 | 5014 ft | 212 kts | 256° |
| 2026-05-07 13:23 | 60.40312 | 11.26523 | 4810 ft | 215 kts | 242° |
| 2026-05-07 13:23 | 60.39408 | 11.24217 | 4588 ft | 204 kts | 220° |
| 2026-05-07 13:24 | 60.38218 | 11.22804 | 4352 ft | 195 kts | 199° |
| 2026-05-07 13:24 | 60.36933 | 11.22031 | 4131 ft | 192 kts | 197° |
| 2026-05-07 13:24 | 60.35645 | 11.21278 | 3830 ft | 193 kts | 197° |
| 2026-05-07 13:24 | 60.34364 | 11.20531 | 3560 ft | 191 kts | 197° |
| 2026-05-07 13:25 | 60.33096 | 11.19790 | 3319 ft | 189 kts | 197° |
| 2026-05-07 13:25 | 60.31852 | 11.19064 | 3076 ft | 188 kts | 197° |
| 2026-05-07 13:25 | 60.30596 | 11.18332 | 2825 ft | 187 kts | 197° |
| 2026-05-07 13:25 | 60.29345 | 11.17607 | 2578 ft | 187 kts | 197° |
| 2026-05-07 13:26 | 60.28106 | 11.16883 | 2328 ft | 181 kts | 197° |
| 2026-05-07 13:26 | 60.26923 | 11.16195 | 2096 ft | 173 kts | 197° |
| 2026-05-07 13:26 | 60.25797 | 11.15542 | 1862 ft | 162 kts | 197° |
| 2026-05-07 13:26 | 60.24753 | 11.14937 | 1658 ft | 150 kts | 197° |
| 2026-05-07 13:27 | 60.23771 | 11.14367 | 1464 ft | 145 kts | 197° |
| 2026-05-07 13:27 | 60.22825 | 11.13818 | 1276 ft | 142 kts | 197° |
| 2026-05-07 13:27 | 60.21875 | 11.13268 | 1094 ft | 142 kts | 197° |
| 2026-05-07 13:27 | 60.20931 | 11.12724 | 878 ft | 141 kts | 197° |
| 2026-05-07 13:28 | 60.19989 | 11.12183 | 719 ft | 140 kts | 197° |
| 2026-05-07 13:28 | 60.19119 | 11.11670 | 684 ft | 111 kts | 196° |
| 2026-05-07 13:28 | 60.18546 | 11.11336 | 681 ft | 61 kts | 196° |
| 2026-05-07 13:28 | 60.18251 | 11.11168 | 682 ft | 38 kts | 197° |
| 2026-05-07 13:29 | 60.18067 | 11.10967 | 678 ft | 18 kts | 225° |
| 2026-05-07 13:29 | 60.18035 | 11.10821 | 680 ft | 13 kts | 277° |
| 2026-05-07 13:29 | 60.18065 | 11.10625 | 675 ft | 10 kts | 287° |
| 2026-05-07 13:29 | 60.18100 | 11.10531 | 679 ft | 8 kts | 342° |
| 2026-05-07 13:30 | 60.18164 | 11.10555 | 680 ft | 11 kts | 17° |
| 2026-05-07 13:30 | 60.18244 | 11.10602 | 677 ft | 13 kts | 16° |
| 2026-05-07 13:30 | 60.18345 | 11.10658 | 681 ft | 16 kts | 15° |
| 2026-05-07 13:30 | 60.18464 | 11.10727 | 681 ft | 19 kts | 16° |
| 2026-05-07 13:31 | 60.18601 | 11.10807 | 678 ft | 22 kts | 16° |
| 2026-05-07 13:31 | 60.18757 | 11.10895 | 683 ft | 24 kts | 15° |
| 2026-05-07 13:31 | 60.18928 | 11.10994 | 683 ft | 27 kts | 17° |
| 2026-05-07 13:31 | 60.19079 | 11.11085 | 683 ft | 15 kts | 15° |
| 2026-05-07 13:32 | 60.19155 | 11.11098 | 682 ft | 10 kts | 334° |
| 2026-05-07 13:32 | 60.19189 | 11.10959 | 683 ft | 13 kts | 285° |
| 2026-05-07 13:32 | 60.19215 | 11.10769 | 681 ft | 16 kts | 285° |
| 2026-05-07 13:32 | 60.19249 | 11.10534 | 679 ft | 19 kts | 287° |
| 2026-05-07 13:33 | 60.19283 | 11.10301 | 685 ft | 11 kts | 286° |
| 2026-05-07 13:33 | 60.19302 | 11.10252 | 685 ft | 4 kts | 346° |
| 2026-05-07 13:33 | 60.19339 | 11.10266 | 685 ft | 5 kts | 15° |
| 2026-05-07 13:33 | 60.19346 | 11.10270 | 685 ft | 0 kts | 16° |